Campanya Meteocatpedra
Centenari de l'SMC: 100 anys mirant el cel

Dades de l'estació automàtica Alcarràs

?
?

Resum diari

22:30 TU
Dades diàries de l'estació meteorològica
Temperatura mitjana 19.1 °C
Temperatura màxima 27.2 °C 13:37 TU
Temperatura mínima 12.3 °C 4:31 TU
Humitat relativa mitjana 58%
Precipitació acumulada 0.0 mm
Ratxa màxima del vent (2 m) 22.0 km/h - 312º 13:45 TU

El tram horari està expressat en Temps Universal (TU). Cal sumar una hora en horari d'hivern i dues en horari d'estiu per passar a l'hora oficial.

Alcarràs

Metadades estació meteorològica
Municipi Alcarràs
Comarca Segrià
Altitud 122 m
Data alta 31.07.2013
Estat actual Operativa
Dades de període
Període
TU
TM
°C
TX
°C
TN
°C
HRM
%
PPT
mm
VVM (2 m)
km/h
DVM (2 m)
graus
VVX (2 m)
km/h
00:00 - 00:30 13.4 13.6 13.1 87 0.0 0.0 341 1.1
00:30 - 01:00 13.6 13.8 13.4 86 0.0 0.4 204 2.5
01:00 - 01:30 13.6 13.8 13.3 87 0.0 0.7 168 2.5
01:30 - 02:00 13.4 13.6 12.9 90 0.0 0.4 166 2.5
02:00 - 02:30 12.5 12.8 12.3 90 0.0 0.0 198 2.9
02:30 - 03:00 12.5 12.9 12.4 91 0.0 0.4 189 3.2
03:00 - 03:30 13.4 13.7 13.0 86 0.0 0.4 188 3.2
03:30 - 04:00 13.2 13.5 12.9 88 0.0 0.4 203 3.6
04:00 - 04:30 12.8 13.5 12.3 88 0.0 0.0 192 1.1
04:30 - 05:00 12.9 13.2 12.3 89 0.0 0.4 256 3.6
05:00 - 05:30 13.1 13.6 12.5 88 0.0 1.1 188 4.7
05:30 - 06:00 13.4 13.6 13.1 87 0.0 0.7 193 4.3
06:00 - 06:30 12.6 13.0 12.5 90 0.0 0.0 0 0.0
06:30 - 07:00 13.5 15.0 12.8 88 0.0 0.0 230 1.4
07:00 - 07:30 16.2 17.0 15.1 75 0.0 1.1 187 5.4
07:30 - 08:00 17.7 18.4 16.9 70 0.0 2.5 169 8.3
08:00 - 08:30 19.3 19.8 18.3 62 0.0 2.2 181 7.9
08:30 - 09:00 19.7 19.9 19.4 61 0.0 3.2 181 10.8
09:00 - 09:30 20.7 21.2 19.9 56 0.0 2.2 199 10.4
09:30 - 10:00 21.9 22.6 21.0 52 0.0 4.3 305 14.4
10:00 - 10:30 22.6 23.5 21.1 48 0.0 3.2 238 13.7
10:30 - 11:00 23.8 24.2 22.9 45 0.0 4.0 287 16.2
11:00 - 11:30 24.5 25.8 23.5 43 0.0 4.0 288 20.9
11:30 - 12:00 25.2 25.6 24.5 39 0.0 3.6 273 17.6
12:00 - 12:30 25.7 26.2 25.4 35 0.0 5.0 295 17.6
12:30 - 13:00 25.7 26.2 25.4 31 0.0 5.8 298 19.4
13:00 - 13:30 26.0 26.7 25.5 28 0.0 5.8 300 17.3
13:30 - 14:00 26.5 27.2 25.6 27 0.0 4.7 296 22.0
14:00 - 14:30 26.2 26.9 25.8 26 0.0 5.0 289 20.2
14:30 - 15:00 26.0 26.5 25.5 26 0.0 5.0 283 16.2
15:00 - 15:30 26.1 26.4 25.6 27 0.0 3.6 265 19.8
15:30 - 16:00 25.4 25.7 25.0 30 0.0 3.6 291 19.8
16:00 - 16:30 24.9 25.3 24.2 32 0.0 4.0 292 18.7
16:30 - 17:00 23.7 24.1 23.1 35 0.0 4.7 301 16.9
17:00 - 17:30 22.5 23.1 21.9 33 0.0 4.3 300 16.2
17:30 - 18:00 21.2 21.9 20.3 38 0.0 1.8 289 10.1
18:00 - 18:30 20.2 20.4 19.9 41 0.0 1.8 251 11.9
18:30 - 19:00 19.6 20.2 18.7 44 0.0 2.2 168 14.0
19:00 - 19:30 18.8 19.0 18.5 48 0.0 1.8 156 8.3
19:30 - 20:00 18.6 18.9 18.3 48 0.0 1.8 172 16.2
20:00 - 20:30 18.8 19.0 18.5 47 0.0 2.2 237 15.1
20:30 - 21:00 18.1 18.5 17.8 52 0.0 1.4 169 9.7
21:00 - 21:30 17.7 18.0 17.3 55 0.0 1.4 176 12.6
21:30 - 22:00 17.1 17.3 16.9 57 0.0 1.4 169 6.8
22:00 - 22:30 16.6 16.9 16.4 59 0.0 1.8 178 5.4
22:30 - 23:00 16.2 16.4 15.9 62 0.0 1.8 166 6.5

Les dades en taronja només han passat un control de qualitat automàtic. Resta pendent la seva validació definitiva.